createdAt,value
2017-02-09T00:02:19.567Z,2.79
2017-02-09T00:04:31.776Z,2.76
2017-02-09T00:06:48.929Z,2.73
2017-02-09T00:09:01.259Z,2.7
2017-02-09T00:11:13.622Z,2.66
2017-02-09T00:13:25.938Z,2.63
2017-02-09T00:15:38.131Z,2.61
2017-02-09T00:17:50.489Z,2.59
2017-02-09T00:20:02.651Z,2.56
2017-02-09T00:22:15.041Z,2.53
2017-02-09T00:24:27.364Z,2.5
2017-02-09T00:26:39.817Z,2.48
2017-02-09T00:28:52.104Z,2.47
2017-02-09T00:31:04.368Z,2.45
2017-02-09T00:33:16.635Z,2.43
2017-02-09T00:35:28.963Z,2.41
2017-02-09T00:37:41.253Z,2.4
2017-02-09T00:39:53.471Z,2.38
2017-02-09T00:42:05.650Z,2.35
2017-02-09T00:44:13.057Z,2.32
2017-02-09T00:46:25.388Z,2.28
2017-02-09T00:48:37.660Z,2.24
2017-02-09T00:50:49.871Z,2.22
2017-02-09T00:53:02.016Z,2.2
2017-02-09T00:55:14.262Z,2.18
2017-02-09T00:57:26.503Z,2.16
2017-02-09T00:59:38.927Z,2.14
2017-02-09T01:01:51.389Z,2.11
2017-02-09T01:04:03.550Z,2.07
2017-02-09T01:06:15.954Z,2.04
2017-02-09T01:08:28.191Z,2
2017-02-09T01:10:40.394Z,1.98
2017-02-09T01:12:52.637Z,1.96
2017-02-09T01:15:04.820Z,1.94
2017-02-09T01:17:17.164Z,1.92
2017-02-09T01:19:29.361Z,1.9
2017-02-09T01:21:36.661Z,1.87
2017-02-09T01:23:48.948Z,1.85
2017-02-09T01:26:01.159Z,1.83
2017-02-09T01:28:13.397Z,1.79
2017-02-09T01:30:25.632Z,1.75
2017-02-09T01:32:37.964Z,1.73
2017-02-09T01:34:50.569Z,1.69
2017-02-09T01:37:03.186Z,1.67
2017-02-09T01:39:15.575Z,1.64
2017-02-09T01:41:27.880Z,1.62
2017-02-09T01:43:40.385Z,1.59
2017-02-09T01:45:52.609Z,1.55
2017-02-09T01:48:04.912Z,1.52
2017-02-09T01:50:17.315Z,1.5
2017-02-09T01:52:19.635Z,1.48
2017-02-09T01:54:32.042Z,1.45
2017-02-09T01:56:44.292Z,1.42
2017-02-09T01:58:56.554Z,1.39
2017-02-09T02:01:08.814Z,1.37
2017-02-09T02:03:20.994Z,1.35
2017-02-09T02:05:33.196Z,1.33
2017-02-09T02:07:45.869Z,1.3
2017-02-09T02:09:58.395Z,1.28
2017-02-09T02:12:10.801Z,1.24
2017-02-09T02:14:23.117Z,1.21
2017-02-09T02:16:35.552Z,1.19
2017-02-09T02:18:47.883Z,1.17
2017-02-09T02:21:00.339Z,1.16
2017-02-09T02:23:12.540Z,1.14
2017-02-09T02:25:24.735Z,1.13
2017-02-09T02:27:36.965Z,1.12
2017-02-09T02:29:49.218Z,1.11
2017-02-09T02:32:01.489Z,1.11
2017-02-09T02:34:13.862Z,1.12
2017-02-09T02:36:26.200Z,1.12
2017-02-09T02:38:38.459Z,1.13
2017-02-09T02:40:50.714Z,1.14
2017-02-09T02:43:03.204Z,1.13
2017-02-09T02:45:15.939Z,1.1
2017-02-09T02:47:28.299Z,1.07
2017-02-09T02:49:40.517Z,1.02
2017-02-09T02:51:52.876Z,0.98
2017-02-09T02:54:05.313Z,0.95
2017-02-09T02:56:17.734Z,0.92
2017-02-09T02:58:29.949Z,0.91
2017-02-09T03:00:42.557Z,0.91
2017-02-09T03:02:54.827Z,0.91
2017-02-09T03:05:07.185Z,0.92
2017-02-09T03:07:19.393Z,0.93
2017-02-09T03:09:31.541Z,0.92
2017-02-09T03:11:43.829Z,0.94
2017-02-09T03:13:55.981Z,0.95
2017-02-09T03:16:08.102Z,0.94
2017-02-09T03:18:20.488Z,0.95
2017-02-09T03:20:28.265Z,0.99
2017-02-09T03:22:40.617Z,1.05
2017-02-09T03:24:47.962Z,1.12
2017-02-09T03:27:00.351Z,1.2
2017-02-09T03:29:12.652Z,1.28
2017-02-09T03:31:24.822Z,1.36
2017-02-09T03:33:32.239Z,1.41
2017-02-09T03:35:44.524Z,1.46
2017-02-09T03:37:57.649Z,1.5
2017-02-09T03:40:09.901Z,1.55
2017-02-09T03:42:22.090Z,1.6
2017-02-09T03:44:34.547Z,1.64
2017-02-09T03:46:46.837Z,1.69
2017-02-09T03:48:59.141Z,1.72
2017-02-09T03:51:11.605Z,1.74
2017-02-09T03:53:35.589Z,1.77
2017-02-09T03:55:48.152Z,1.81
2017-02-09T03:58:00.580Z,1.84
2017-02-09T04:00:12.868Z,1.84
2017-02-09T04:02:25.036Z,1.84
2017-02-09T04:04:37.282Z,1.87
2017-02-09T04:06:49.571Z,1.89
2017-02-09T04:09:01.843Z,1.9
2017-02-09T04:11:14.098Z,1.93
2017-02-09T04:13:26.470Z,1.94
2017-02-09T04:15:38.982Z,1.96
2017-02-09T04:17:51.257Z,1.98
2017-02-09T04:20:03.552Z,2
2017-02-09T04:22:15.952Z,2.02
2017-02-09T04:24:28.157Z,2.04
2017-02-09T04:26:40.378Z,2.07
2017-02-09T04:28:53.027Z,2.09
2017-02-09T04:31:05.302Z,2.11
2017-02-09T04:33:17.646Z,2.13
2017-02-09T04:35:29.927Z,2.15
2017-02-09T04:37:42.261Z,2.17
2017-02-09T04:39:54.659Z,2.17
2017-02-09T04:42:01.872Z,2.17
2017-02-09T04:44:14.134Z,2.16
2017-02-09T04:46:26.350Z,2.14
2017-02-09T04:48:38.709Z,2.13
2017-02-09T04:50:50.988Z,2.14
2017-02-09T04:53:03.362Z,2.16
2017-02-09T04:55:15.677Z,2.19
2017-02-09T04:57:27.977Z,2.2
2017-02-09T04:59:40.212Z,2.21
2017-02-09T05:01:52.581Z,2.22
2017-02-09T05:04:00.390Z,2.22
2017-02-09T05:06:12.812Z,2.22
2017-02-09T05:08:25.400Z,2.22
2017-02-09T05:10:37.786Z,2.24
2017-02-09T05:12:49.988Z,2.25
2017-02-09T05:15:02.291Z,2.26
2017-02-09T05:17:14.597Z,2.26
2017-02-09T05:19:26.898Z,2.26
2017-02-09T05:21:34.131Z,2.27
2017-02-09T05:23:46.620Z,2.26
2017-02-09T05:25:59.004Z,2.27
2017-02-09T05:28:11.366Z,2.27
2017-02-09T05:30:23.812Z,2.25
2017-02-09T05:32:36.221Z,2.24
2017-02-09T05:34:48.711Z,2.24
2017-02-09T05:37:01.115Z,2.24
2017-02-09T05:39:13.506Z,2.23
2017-02-09T05:41:26.636Z,2.2
2017-02-09T05:43:39.257Z,2.17
2017-02-09T05:45:51.635Z,2.16
2017-02-09T05:48:03.833Z,2.17
2017-02-09T05:50:16.214Z,2.19
2017-02-09T05:52:28.423Z,2.21
2017-02-09T05:54:40.756Z,2.2
2017-02-09T05:56:53.069Z,2.19
2017-02-09T05:59:05.327Z,2.18
2017-02-09T06:01:17.700Z,2.19
2017-02-09T06:03:30.096Z,2.2
2017-02-09T06:05:42.551Z,2.23
2017-02-09T06:07:54.781Z,2.25
2017-02-09T06:10:07.187Z,2.24
2017-02-09T06:12:14.583Z,2.25
2017-02-09T06:14:26.867Z,2.24
2017-02-09T06:16:34.126Z,2.21
2017-02-09T06:18:46.627Z,2.18
2017-02-09T06:20:58.942Z,2.18
2017-02-09T06:23:11.133Z,2.18
2017-02-09T06:25:23.463Z,2.18
2017-02-09T06:27:35.879Z,2.2
2017-02-09T06:29:48.991Z,2.23
2017-02-09T06:32:01.297Z,2.27
2017-02-09T06:34:13.555Z,2.28
2017-02-09T06:36:25.958Z,2.28
2017-02-09T06:38:38.269Z,2.3
2017-02-09T06:40:50.711Z,2.32
2017-02-09T06:43:03.045Z,2.31
2017-02-09T06:45:10.356Z,2.31
2017-02-09T06:47:22.629Z,2.32
2017-02-09T06:49:34.900Z,2.35
2017-02-09T06:51:37.461Z,2.39
2017-02-09T06:53:49.995Z,2.4
2017-02-09T06:56:02.444Z,2.37
2017-02-09T06:58:14.863Z,2.38
2017-02-09T07:00:22.320Z,2.42
2017-02-09T07:02:34.935Z,2.48
2017-02-09T07:04:47.134Z,2.53
2017-02-09T07:06:59.381Z,2.6
2017-02-09T07:09:11.745Z,2.65
2017-02-09T07:11:24.192Z,2.66
2017-02-09T07:13:36.559Z,2.67
2017-02-09T07:15:48.842Z,2.67
2017-02-09T07:18:01.294Z,2.65
2017-02-09T07:20:13.833Z,2.62
2017-02-09T07:22:26.194Z,2.58
2017-02-09T07:24:38.571Z,2.59
2017-02-09T07:26:50.859Z,2.63
2017-02-09T07:29:03.487Z,2.66
2017-02-09T07:31:15.975Z,2.69
2017-02-09T07:33:28.202Z,2.72
2017-02-09T07:35:40.720Z,2.79
2017-02-09T07:37:53.652Z,2.88
2017-02-09T07:40:05.982Z,2.94
2017-02-09T07:42:18.441Z,3.05
2017-02-09T07:44:30.656Z,3.17
2017-02-09T07:46:43.180Z,3.27
2017-02-09T07:48:55.658Z,3.4
2017-02-09T07:51:07.988Z,3.53
2017-02-09T07:53:15.398Z,3.63
2017-02-09T07:55:27.742Z,3.7
2017-02-09T07:57:40.207Z,3.64
2017-02-09T07:59:52.590Z,3.6
2017-02-09T08:02:04.934Z,3.6
2017-02-09T08:04:17.551Z,3.56
2017-02-09T08:06:29.855Z,3.56
2017-02-09T08:08:42.050Z,3.57
2017-02-09T08:10:54.255Z,3.66
2017-02-09T08:13:01.697Z,3.69
2017-02-09T08:15:14.101Z,3.76
2017-02-09T08:17:21.508Z,3.78
2017-02-09T08:19:34.144Z,3.76
2017-02-09T08:21:46.441Z,3.76
2017-02-09T08:23:58.742Z,3.8
2017-02-09T08:26:11.194Z,3.89
2017-02-09T08:28:23.859Z,4.01
2017-02-09T08:30:36.297Z,3.98
2017-02-09T08:32:43.611Z,4.1
2017-02-09T08:34:55.909Z,4.26
2017-02-09T08:37:08.160Z,4.42
2017-02-09T08:39:15.537Z,4.65
2017-02-09T08:41:27.895Z,4.97
2017-02-09T08:43:40.370Z,5.29
2017-02-09T08:45:53.361Z,5.44
2017-02-09T08:48:06.255Z,5.64
2017-02-09T08:50:18.597Z,5.8
2017-02-09T08:52:31.103Z,5.95
2017-02-09T08:54:43.523Z,6.1
2017-02-09T08:56:56.747Z,6.05
2017-02-09T08:59:09.248Z,5.83
2017-02-09T09:01:21.736Z,5.8
2017-02-09T09:03:34.080Z,5.84
2017-02-09T09:05:46.457Z,6.07
2017-02-09T09:07:58.858Z,6.38
2017-02-09T09:10:11.146Z,6.65
2017-02-09T09:12:23.592Z,6.73
2017-02-09T09:14:36.078Z,7
2017-02-09T09:16:43.469Z,7.44
2017-02-09T09:18:56.231Z,7.54
2017-02-09T09:21:08.450Z,7.57
2017-02-09T09:23:15.843Z,7.55
2017-02-09T09:25:28.130Z,7.46
2017-02-09T09:27:35.420Z,7.54
2017-02-09T09:29:47.663Z,7.48
2017-02-09T09:31:59.934Z,7.33
2017-02-09T09:34:12.365Z,7.31
2017-02-09T09:36:24.637Z,7.48
2017-02-09T09:38:32.045Z,7.59
2017-02-09T09:40:44.571Z,7.8
2017-02-09T09:42:51.834Z,7.97
2017-02-09T09:45:04.045Z,8.34
2017-02-09T09:47:16.259Z,8.67
2017-02-09T09:49:28.550Z,9.03
2017-02-09T09:51:40.831Z,9.24
2017-02-09T09:53:53.304Z,9.39
2017-02-09T09:56:05.725Z,10.01
2017-02-09T09:58:13.248Z,10.77
2017-02-09T10:00:25.435Z,11.28
2017-02-09T10:02:37.606Z,11.91
2017-02-09T10:04:50.052Z,12.02
2017-02-09T10:07:02.225Z,12.07
2017-02-09T10:09:09.447Z,11.76
2017-02-09T10:11:16.687Z,11.41
2017-02-09T10:13:28.871Z,11.63
2017-02-09T10:15:41.159Z,11.68
2017-02-09T10:17:53.473Z,12.03
2017-02-09T10:20:05.792Z,13.99
2017-02-09T10:22:13.160Z,15.91
2017-02-09T10:24:25.576Z,15.67
2017-02-09T10:26:38.001Z,14.78
2017-02-09T10:28:50.523Z,14.3
2017-02-09T10:31:02.965Z,14.21
2017-02-09T10:33:15.138Z,14.88
2017-02-09T10:35:27.490Z,15.07
2017-02-09T10:37:39.786Z,14.71
2017-02-09T10:39:51.964Z,15.46
2017-02-09T10:41:59.267Z,15.81
2017-02-09T10:44:11.476Z,15.72
2017-02-09T10:46:23.649Z,15.58
2017-02-09T10:48:35.979Z,15.96
2017-02-09T10:50:48.103Z,18.6
2017-02-09T10:53:00.396Z,18.47
2017-02-09T10:55:12.706Z,17.93
2017-02-09T10:57:25.021Z,17.12
2017-02-09T10:59:37.221Z,19.72
2017-02-09T11:01:49.556Z,19.08
2017-02-09T11:03:56.861Z,18.44
2017-02-09T11:06:09.121Z,16.79
2017-02-09T11:08:16.382Z,15.81
2017-02-09T11:10:28.728Z,15.47
2017-02-09T11:12:40.940Z,15.31
2017-02-09T11:14:53.153Z,15.11
2017-02-09T11:17:05.419Z,14.79
2017-02-09T11:19:23.167Z,13.9
2017-02-09T11:21:43.502Z,13.46
2017-02-09T11:24:05.835Z,13.66
2017-02-09T11:26:18.079Z,13.65
2017-02-09T11:28:30.291Z,13.49
2017-02-09T11:30:42.615Z,13.3
2017-02-09T11:32:54.940Z,13.6
2017-02-09T11:35:07.182Z,13.62
2017-02-09T11:37:19.365Z,13.62
2017-02-09T11:39:31.674Z,13.74
2017-02-09T11:41:44.395Z,14.41
2017-02-09T11:43:56.754Z,14.02
2017-02-09T11:46:09.026Z,13.71
2017-02-09T11:48:21.408Z,13.57
2017-02-09T11:50:33.742Z,13.96
2017-02-09T11:52:46.017Z,14.58
2017-02-09T11:54:58.231Z,16.02
2017-02-09T11:57:10.684Z,20.32
2017-02-09T11:59:23.149Z,21.06
2017-02-09T12:01:35.588Z,21.14
2017-02-09T12:03:38.051Z,21.82
2017-02-09T12:05:50.292Z,21.31
2017-02-09T12:08:02.739Z,20.68
2017-02-09T12:10:15.096Z,19.55
2017-02-09T12:12:28.304Z,20.42
2017-02-09T12:14:40.627Z,19.7
2017-02-09T12:16:52.967Z,20.36
2017-02-09T12:19:05.442Z,21.25
2017-02-09T12:21:12.825Z,21.18
2017-02-09T12:23:25.140Z,19.68
2017-02-09T12:25:37.472Z,18.2
2017-02-09T12:27:44.710Z,17.35
2017-02-09T12:29:58.109Z,16.72
2017-02-09T12:32:12.519Z,16.2
2017-02-09T12:34:26.269Z,15.86
2017-02-09T12:36:40.757Z,15.71
2017-02-09T12:38:54.198Z,15.13
2017-02-09T12:41:07.311Z,14.78
2017-02-09T12:43:18.139Z,14.68
2017-02-09T12:45:31.520Z,14.27
2017-02-09T12:47:43.820Z,14.01
2017-02-09T12:49:56.128Z,14.27
2017-02-09T12:52:08.540Z,14.45
2017-02-09T12:54:20.980Z,14.48
2017-02-09T12:56:33.572Z,14.41
2017-02-09T12:58:46.089Z,13.64
2017-02-09T13:00:58.550Z,12.99
2017-02-09T13:03:10.859Z,12.82
2017-02-09T13:05:23.236Z,12.39
2017-02-09T13:07:35.781Z,12.19
2017-02-09T13:09:48.104Z,12.16
2017-02-09T13:12:00.505Z,12.37
2017-02-09T13:14:07.908Z,12.36
2017-02-09T13:16:20.220Z,12.33
2017-02-09T13:18:32.592Z,12.36
2017-02-09T13:20:45.091Z,12.25
2017-02-09T13:22:57.370Z,12.15
2017-02-09T13:25:09.821Z,11.74
2017-02-09T13:27:22.207Z,11.35
2017-02-09T13:29:34.876Z,11.28
2017-02-09T13:31:47.269Z,11.18
2017-02-09T13:33:59.509Z,11.02
2017-02-09T13:36:11.815Z,10.91
2017-02-09T13:38:24.275Z,10.72
2017-02-09T13:40:31.576Z,10.46
2017-02-09T13:42:44.137Z,10.16
2017-02-09T13:44:56.544Z,9.91
2017-02-09T13:47:08.842Z,9.64
2017-02-09T13:49:21.246Z,9.51
2017-02-09T13:51:33.680Z,9.41
2017-02-09T13:53:46.062Z,9.32
2017-02-09T13:55:58.407Z,9.3
2017-02-09T13:58:10.698Z,9.29
2017-02-09T14:00:23.022Z,9.28
2017-02-09T14:02:30.430Z,9.25
2017-02-09T14:04:42.895Z,9.21
2017-02-09T14:06:55.181Z,9.14
2017-02-09T14:09:07.317Z,9.03
2017-02-09T14:11:19.614Z,8.87
2017-02-09T14:13:27.102Z,8.75
2017-02-09T14:15:39.311Z,8.57
2017-02-09T14:17:51.461Z,8.44
2017-02-09T14:20:03.708Z,8.42
2017-02-09T14:22:15.964Z,8.34
2017-02-09T14:24:28.118Z,8.21
2017-02-09T14:26:40.362Z,8.09
2017-02-09T14:28:52.562Z,7.97
2017-02-09T14:31:04.833Z,7.82
2017-02-09T14:33:17.191Z,7.75
2017-02-09T14:35:29.496Z,7.58
2017-02-09T14:37:41.729Z,7.34
2017-02-09T14:39:53.956Z,7.15
2017-02-09T14:42:01.190Z,6.94
2017-02-09T14:44:13.592Z,6.74
2017-02-09T14:46:25.934Z,6.62
2017-02-09T14:48:38.261Z,6.54
2017-02-09T14:50:45.761Z,6.48
2017-02-09T14:52:53.191Z,6.34
2017-02-09T14:55:05.733Z,6.24
2017-02-09T14:57:18.186Z,6.06
2017-02-09T14:59:25.394Z,5.93
2017-02-09T15:01:37.685Z,5.78
2017-02-09T15:03:50.158Z,5.65
2017-02-09T15:06:02.633Z,5.55
2017-02-09T15:08:16.662Z,5.42
2017-02-09T15:10:28.917Z,5.29
2017-02-09T15:12:41.330Z,5.18
2017-02-09T15:14:53.647Z,5.1
2017-02-09T15:17:06.031Z,5.04
2017-02-09T15:19:18.401Z,4.98
2017-02-09T15:21:30.756Z,4.94
2017-02-09T15:23:43.091Z,4.86
2017-02-09T15:25:55.325Z,4.73
2017-02-09T15:28:02.613Z,4.6
2017-02-09T15:30:15.152Z,4.47
2017-02-09T15:32:27.746Z,4.36
2017-02-09T15:34:34.998Z,4.25
2017-02-09T15:36:47.236Z,4.17
2017-02-09T15:38:59.677Z,4.11
2017-02-09T15:41:12.022Z,4.01
2017-02-09T15:43:24.454Z,3.93
2017-02-09T15:45:31.749Z,3.88
2017-02-09T15:47:44.071Z,3.83
2017-02-09T15:49:56.337Z,3.75
2017-02-09T15:52:08.758Z,3.69
2017-02-09T15:54:20.998Z,3.63
2017-02-09T15:56:33.226Z,3.61
2017-02-09T15:58:45.545Z,3.55
2017-02-09T16:00:57.869Z,3.49
2017-02-09T16:03:10.287Z,3.43
2017-02-09T16:05:22.714Z,3.38
2017-02-09T16:07:35.654Z,3.34
2017-02-09T16:09:48.140Z,3.29
2017-02-09T16:12:00.573Z,3.23
2017-02-09T16:14:12.884Z,3.17
2017-02-09T16:16:25.235Z,3.12
2017-02-09T16:18:32.490Z,3.08
2017-02-09T16:20:44.744Z,3.03
2017-02-09T16:22:56.944Z,2.99
2017-02-09T16:25:09.188Z,2.95
2017-02-09T16:27:21.603Z,2.91
2017-02-09T16:29:33.850Z,2.87
2017-02-09T16:31:46.041Z,2.83
2017-02-09T16:33:58.345Z,2.8
2017-02-09T16:36:10.704Z,2.78
2017-02-09T16:38:23.795Z,2.74
2017-02-09T16:40:36.090Z,2.71
2017-02-09T16:42:48.509Z,2.69
2017-02-09T16:45:00.822Z,2.66
2017-02-09T16:47:13.066Z,2.64
2017-02-09T16:49:20.448Z,2.61
2017-02-09T16:51:32.727Z,2.56
2017-02-09T16:53:45.152Z,2.55
2017-02-09T16:55:57.683Z,2.53
2017-02-09T16:58:10.139Z,2.46
2017-02-09T17:00:22.747Z,2.41
2017-02-09T17:02:35.240Z,2.38
2017-02-09T17:04:47.538Z,2.37
2017-02-09T17:06:59.801Z,2.37
2017-02-09T17:09:12.030Z,2.35
2017-02-09T17:11:24.372Z,2.3
2017-02-09T17:13:36.744Z,2.26
2017-02-09T17:15:48.929Z,2.21
2017-02-09T17:18:01.255Z,2.17
2017-02-09T17:20:08.675Z,2.12
2017-02-09T17:22:21.166Z,2.09
2017-02-09T17:24:33.599Z,2.07
2017-02-09T17:26:46.034Z,2.05
2017-02-09T17:28:58.388Z,2.03
2017-02-09T17:31:11.129Z,2
2017-02-09T17:33:23.636Z,1.97
2017-02-09T17:35:35.877Z,1.94
2017-02-09T17:37:43.309Z,1.94
2017-02-09T17:39:55.813Z,1.95
2017-02-09T17:42:08.253Z,1.96
2017-02-09T17:44:20.574Z,1.95
2017-02-09T17:46:32.994Z,1.94
2017-02-09T17:48:45.352Z,1.93
2017-02-09T17:50:57.692Z,1.92
2017-02-09T17:53:10.010Z,1.94
2017-02-09T17:55:17.362Z,1.96
2017-02-09T17:57:29.694Z,1.96
2017-02-09T17:59:41.987Z,1.95
2017-02-09T18:01:54.303Z,1.94
2017-02-09T18:04:06.526Z,1.97
2017-02-09T18:06:19.042Z,2.02
2017-02-09T18:08:31.212Z,2.06
2017-02-09T18:10:43.536Z,2.08
2017-02-09T18:12:56.882Z,2.09
2017-02-09T18:15:09.220Z,2.09
2017-02-09T18:17:21.636Z,2.09
2017-02-09T18:19:33.912Z,2.09
2017-02-09T18:21:41.222Z,2.1
2017-02-09T18:23:53.626Z,2.12
2017-02-09T18:26:05.986Z,2.14
2017-02-09T18:28:18.552Z,2.16
2017-02-09T18:30:26.252Z,2.18
2017-02-09T18:32:33.573Z,2.18
2017-02-09T18:34:45.948Z,2.2
2017-02-09T18:36:58.474Z,2.19
2017-02-09T18:39:10.910Z,2.18
2017-02-09T18:41:23.346Z,2.18
2017-02-09T18:43:35.839Z,2.19
2017-02-09T18:45:48.204Z,2.16
2017-02-09T18:48:00.616Z,2.12
2017-02-09T18:50:13.068Z,2.11
2017-02-09T18:52:25.398Z,2.11
2017-02-09T18:54:37.742Z,2.12
2017-02-09T18:56:50.178Z,2.13
2017-02-09T18:59:02.454Z,2.16
2017-02-09T19:01:14.689Z,2.17
2017-02-09T19:03:27.148Z,2.16
2017-02-09T19:05:39.442Z,2.17
2017-02-09T19:07:51.693Z,2.18
2017-02-09T19:10:04.092Z,2.17
2017-02-09T19:12:16.773Z,2.14
2017-02-09T19:14:29.082Z,2.13
2017-02-09T19:16:41.306Z,2.12
2017-02-09T19:18:53.544Z,2.14
2017-02-09T19:21:00.758Z,2.14
2017-02-09T19:23:12.955Z,2.17
2017-02-09T19:25:25.285Z,2.17
2017-02-09T19:27:37.644Z,2.18
2017-02-09T19:29:49.867Z,2.18
2017-02-09T19:32:02.304Z,2.19
2017-02-09T19:34:14.793Z,2.2
2017-02-09T19:36:27.128Z,2.18
2017-02-09T19:38:39.389Z,2.19
2017-02-09T19:40:51.760Z,2.21
2017-02-09T19:43:04.004Z,2.23
2017-02-09T19:45:16.567Z,2.25
2017-02-09T19:47:28.978Z,2.26
2017-02-09T19:49:36.563Z,2.25
2017-02-09T19:51:49.352Z,2.26
2017-02-09T19:54:01.704Z,2.26
2017-02-09T19:56:14.301Z,2.26
2017-02-09T19:58:26.790Z,2.27
2017-02-09T20:00:39.269Z,2.28
2017-02-09T20:02:51.670Z,2.27
2017-02-09T20:05:03.975Z,2.24
2017-02-09T20:07:11.574Z,2.22
2017-02-09T20:09:23.865Z,2.23
2017-02-09T20:11:36.097Z,2.23
2017-02-09T20:13:48.975Z,2.23
2017-02-09T20:16:01.693Z,2.24
2017-02-09T20:18:31.524Z,2.25
2017-02-09T20:20:44.097Z,2.28
2017-02-09T20:22:56.634Z,2.32
2017-02-09T20:25:09.364Z,2.34
2017-02-09T20:27:21.804Z,2.36
2017-02-09T20:29:34.359Z,2.36
2017-02-09T20:31:46.811Z,2.35
2017-02-09T20:33:59.411Z,2.35
2017-02-09T20:36:11.981Z,2.37
2017-02-09T20:38:24.202Z,2.38
2017-02-09T20:40:36.790Z,2.39
2017-02-09T20:42:49.101Z,2.4
2017-02-09T20:45:01.403Z,2.42
2017-02-09T20:47:13.829Z,2.46
2017-02-09T20:49:26.049Z,2.48
2017-02-09T20:51:38.526Z,2.49
2017-02-09T20:53:50.994Z,2.5
2017-02-09T20:56:03.967Z,2.48
2017-02-09T20:58:16.649Z,2.44
2017-02-09T21:00:29.168Z,2.4
2017-02-09T21:02:41.699Z,2.4
2017-02-09T21:04:54.045Z,2.42
2017-02-09T21:07:06.413Z,2.45
2017-02-09T21:09:18.902Z,2.48
2017-02-09T21:11:31.281Z,2.5
2017-02-09T21:13:43.767Z,2.51
2017-02-09T21:15:56.131Z,2.54
2017-02-09T21:18:08.437Z,2.56
2017-02-09T21:20:20.755Z,2.57
2017-02-09T21:22:33.143Z,2.59
2017-02-09T21:24:45.599Z,2.61
2017-02-09T21:26:58.077Z,2.63
2017-02-09T21:29:10.810Z,2.61
2017-02-09T21:31:23.122Z,2.62
2017-02-09T21:33:30.475Z,2.63
2017-02-09T21:35:42.948Z,2.66
2017-02-09T21:37:50.433Z,2.66
2017-02-09T21:39:57.788Z,2.65
2017-02-09T21:42:10.155Z,2.62
2017-02-09T21:44:22.365Z,2.6
2017-02-09T21:46:34.682Z,2.61
2017-02-09T21:48:47.173Z,2.63
2017-02-09T21:51:00.044Z,2.65
2017-02-09T21:53:12.511Z,2.67
2017-02-09T21:55:26.799Z,2.66
2017-02-09T21:57:39.119Z,2.66
2017-02-09T21:59:51.444Z,2.64
2017-02-09T22:02:03.819Z,2.61
2017-02-09T22:04:11.208Z,2.57
2017-02-09T22:06:18.571Z,2.5
2017-02-09T22:08:30.871Z,2.46
2017-02-09T22:10:44.164Z,2.41
2017-02-09T22:12:56.410Z,2.42
2017-02-09T22:15:08.857Z,2.46
2017-02-09T22:17:21.234Z,2.49
2017-02-09T22:19:33.520Z,2.52
2017-02-09T22:21:45.687Z,2.52
2017-02-09T22:23:57.973Z,2.5
2017-02-09T22:26:10.332Z,2.47
2017-02-09T22:28:22.574Z,2.45
2017-02-09T22:30:34.838Z,2.45
2017-02-09T22:32:47.269Z,2.41
2017-02-09T22:34:59.742Z,2.36
2017-02-09T22:37:11.963Z,2.34
2017-02-09T22:39:24.473Z,2.34
2017-02-09T22:41:36.996Z,2.34
2017-02-09T22:43:49.375Z,2.32
2017-02-09T22:46:01.767Z,2.31
2017-02-09T22:48:14.194Z,2.29
2017-02-09T22:50:21.391Z,2.28
2017-02-09T22:52:33.826Z,2.3
2017-02-09T22:54:46.155Z,2.3
2017-02-09T22:56:58.360Z,2.34
2017-02-09T22:59:10.582Z,2.37
2017-02-09T23:01:23.092Z,2.39
2017-02-09T23:03:35.658Z,2.41
2017-02-09T23:05:48.108Z,2.44
2017-02-09T23:08:00.597Z,2.46
2017-02-09T23:10:12.974Z,2.46
2017-02-09T23:12:25.302Z,2.45
2017-02-09T23:14:37.966Z,2.46
2017-02-09T23:16:50.406Z,2.47
2017-02-09T23:19:02.613Z,2.47
2017-02-09T23:21:14.952Z,2.48
2017-02-09T23:23:27.243Z,2.47
2017-02-09T23:25:39.614Z,2.46
2017-02-09T23:27:51.861Z,2.46
2017-02-09T23:30:04.205Z,2.46
2017-02-09T23:32:16.683Z,2.47
2017-02-09T23:34:28.896Z,2.46
2017-02-09T23:36:31.213Z,2.46
2017-02-09T23:38:43.405Z,2.45
2017-02-09T23:40:55.709Z,2.46
2017-02-09T23:43:07.999Z,2.47
2017-02-09T23:45:20.258Z,2.47
2017-02-09T23:47:32.535Z,2.48
2017-02-09T23:49:45.036Z,2.49
2017-02-09T23:51:57.496Z,2.5
2017-02-09T23:54:09.795Z,2.5
2017-02-09T23:56:22.092Z,2.48
2017-02-09T23:58:34.294Z,2.47
